Terminal Aerodrome Forecast
Issued by NWS

Home | Current Version | Previous Version | Text Only | Print | Product List | Glossary On
Versions: 1 2 3 4 5 6 7 8 9 10 11 12 13 14 15 16 17 18 19
000
FTUS41 KPBZ 311700
TAFAGC
TAF
KAGC 311740Z 3118/0118 26004KT P6SM -RA BKN025 OVC035
     FM312300 06005KT 2SM -RA BR BKN015 OVC025
     FM010200 VRB04KT 5SM -RA BR BKN010 OVC025
     FM011300 36010G15KT P6SM VCSH SCT015 BKN030=

USA.gov is the U.S. government's official web portal to all federal, state and local government web resources and services.